Time;durP1;ratioP1;P1;durP2;ratioP2;P2;SDS_P1;SDS_P2;PMS_P1;PMS_P2;Temp;Humidity;BMP_temperature;BMP_pressure;BME280_temperature;BME280_humidity;BME280_pressure;Samples;Min_cycle;Max_cycle;Signal;HPM_P1;HPM_P2
2022/12/15 00:39:45;;;;;;;52.08;22.38;;;;;;;;;;5036572;28;20036;-76
2022/12/15 00:42:11;;;;;;;46.42;22.02;;;;;;;;;;5036217;28;20022;-77
2022/12/15 00:44:37;;;;;;;53.97;23.02;;;;;;;;;;5034797;28;20025;-76
2022/12/15 00:47:04;;;;;;;49.40;22.05;;;;;;;;;;5034281;28;20112;-77
2022/12/15 01:22:36;;;;;;;46.30;21.05;;;;;;;;;;5035526;28;20437;-77
2022/12/15 01:25:02;;;;;;;49.58;20.52;;;;;;;;;;5034289;28;20444;-76
2022/12/15 01:27:28;;;;;;;48.72;21.15;;;;;;;;;;5035079;28;20048;-76
2022/12/15 01:29:54;;;;;;;50.25;21.73;;;;;;;;;;5035389;28;20494;-75
2022/12/15 01:32:20;;;;;;;51.13;22.02;;;;;;;;;;5035999;28;20026;-77
2022/12/15 01:34:46;;;;;;;52.25;23.27;;;;;;;;;;5035974;28;20022;-77
2022/12/15 01:37:12;;;;;;;54.55;22.55;;;;;;;;;;5035562;28;20071;-75
2022/12/15 01:42:22;;;;;;;49.53;20.88;;;;;;;;;;5038019;28;20048;-75
2022/12/15 01:44:50;;;;;;;50.83;22.17;;;;;;;;;;5039876;28;20522;-76
2022/12/15 01:47:16;;;;;;;47.63;22.15;;;;;;;;;;5044277;28;20045;-76
2022/12/15 01:49:46;;;;;;;51.75;21.23;;;;;;;;;;5044969;28;20021;-75
2022/12/15 01:52:14;;;;;;;53.50;21.58;;;;;;;;;;5047582;28;20040;-76
2022/12/15 01:54:47;;;;;;;53.58;22.15;;;;;;;;;;5041424;28;20044;-76
2022/12/15 01:57:17;;;;;;;43.50;20.75;;;;;;;;;;5038582;28;20018;-76
2022/12/15 01:59:47;;;;;;;49.45;22.08;;;;;;;;;;5035809;28;20022;-76
2022/12/15 02:02:15;;;;;;;46.63;20.92;;;;;;;;;;5043823;28;20114;-79
2022/12/15 02:04:41;;;;;;;47.15;21.08;;;;;;;;;;5048429;28;20032;-77
2022/12/15 02:07:12;;;;;;;43.28;19.98;;;;;;;;;;5040180;28;20128;-76
2022/12/15 02:09:38;;;;;;;47.00;21.52;;;;;;;;;;5036748;28;20022;-77
2022/12/15 02:12:19;;;;;;;47.67;21.52;;;;;;;;;;5036411;28;20083;-76
2022/12/15 02:14:48;;;;;;;48.53;21.15;;;;;;;;;;5036915;28;20057;-76
2022/12/15 02:17:18;;;;;;;48.28;21.50;;;;;;;;;;5037050;28;20021;-77
2022/12/15 02:20:02;;;;;;;47.28;21.13;;;;;;;;;;5036568;28;20026;-76
2022/12/15 02:22:41;;;;;;;44.13;19.85;;;;;;;;;;5034603;28;20037;-76
2022/12/15 02:25:37;;;;;;;42.95;19.60;;;;;;;;;;5036006;28;20041;-76
2022/12/15 02:28:03;;;;;;;47.70;21.08;;;;;;;;;;5033522;28;20041;-77
2022/12/15 02:30:34;;;;;;;51.40;22.20;;;;;;;;;;5034387;28;20087;-76
2022/12/15 02:33:04;;;;;;;45.38;20.63;;;;;;;;;;5034913;28;20051;-77
2022/12/15 02:35:36;;;;;;;45.47;21.65;;;;;;;;;;5038779;28;20081;-77
2022/12/15 02:38:02;;;;;;;45.53;21.58;;;;;;;;;;5035515;28;20025;-75
2022/12/15 02:40:28;;;;;;;47.75;21.27;;;;;;;;;;5041277;28;20068;-76
2022/12/15 02:42:57;;;;;;;46.17;20.40;;;;;;;;;;5044624;28;20029;-76
2022/12/15 02:45:30;;;;;;;45.63;21.10;;;;;;;;;;5037662;28;20029;-77
2022/12/15 02:48:19;;;;;;;48.78;20.55;;;;;;;;;;5039376;28;20033;-76
2022/12/15 02:51:00;;;;;;;46.28;21.67;;;;;;;;;;5046896;28;20025;-76
2022/12/15 02:53:26;;;;;;;52.25;22.85;;;;;;;;;;5046423;28;20029;-75
2022/12/15 02:56:04;;;;;;;48.90;21.02;;;;;;;;;;5049226;28;20032;-76
2022/12/15 02:58:30;;;;;;;48.95;21.70;;;;;;;;;;5044906;28;20093;-76
2022/12/15 03:01:16;;;;;;;46.50;21.92;;;;;;;;;;5046797;28;20457;-75
2022/12/15 03:03:43;;;;;;;41.05;20.20;;;;;;;;;;5047504;28;20134;-79
2022/12/15 03:06:09;;;;;;;50.63;21.52;;;;;;;;;;5048858;28;20049;-79
2022/12/15 03:08:35;;;;;;;46.55;21.83;;;;;;;;;;5047646;28;20132;-78
2022/12/15 03:11:01;;;;;;;52.70;21.67;;;;;;;;;;5046866;28;20025;-77
2022/12/15 03:13:27;;;;;;;45.42;21.35;;;;;;;;;;5045314;28;20401;-79
2022/12/15 03:15:53;;;;;;;47.42;21.30;;;;;;;;;;5036102;28;20030;-79
2022/12/15 03:18:19;;;;;;;62.08;22.77;;;;;;;;;;5035577;28;20017;-77
2022/12/15 03:20:45;;;;;;;50.17;22.48;;;;;;;;;;5033875;28;20108;-75
2022/12/15 03:23:11;;;;;;;49.45;22.38;;;;;;;;;;5035872;28;20080;-77
2022/12/15 03:25:37;;;;;;;44.35;21.02;;;;;;;;;;5033415;28;20056;-78
2022/12/15 03:28:03;;;;;;;45.15;21.90;;;;;;;;;;5034033;28;20029;-76
2022/12/15 03:30:29;;;;;;;52.78;22.23;;;;;;;;;;5034055;28;20029;-78
2022/12/15 03:32:55;;;;;;;47.95;22.38;;;;;;;;;;5038643;28;20432;-77
2022/12/15 03:35:21;;;;;;;50.70;21.42;;;;;;;;;;5044136;28;20021;-78
2022/12/15 03:37:47;;;;;;;56.08;22.65;;;;;;;;;;5047150;28;20093;-77
2022/12/15 03:40:13;;;;;;;52.90;23.60;;;;;;;;;;5039351;28;20025;-77
2022/12/15 03:42:48;;;;;;;47.08;22.00;;;;;;;;;;5038794;28;20028;-77
2022/12/15 03:45:15;;;;;;;51.90;23.05;;;;;;;;;;5039527;28;20060;-77
2022/12/15 03:47:41;;;;;;;52.13;22.67;;;;;;;;;;5039251;28;20029;-77
2022/12/15 03:50:08;;;;;;;54.17;23.63;;;;;;;;;;5038479;28;20021;-78
2022/12/15 03:52:34;;;;;;;55.65;23.02;;;;;;;;;;5041266;28;20076;-80
2022/12/15 03:55:00;;;;;;;50.97;24.05;;;;;;;;;;5040583;28;20044;-76
2022/12/15 03:57:26;;;;;;;52.25;23.30;;;;;;;;;;5040463;28;20025;-78
2022/12/15 03:59:52;;;;;;;55.72;22.67;;;;;;;;;;5042700;28;20029;-80
2022/12/15 04:02:18;;;;;;;49.63;22.70;;;;;;;;;;5043650;28;20029;-78
2022/12/15 04:04:44;;;;;;;53.15;23.38;;;;;;;;;;5048104;28;20036;-77
2022/12/15 04:07:10;;;;;;;50.88;22.55;;;;;;;;;;5056003;28;20018;-78
2022/12/15 04:09:37;;;;;;;55.88;23.20;;;;;;;;;;5049151;28;20021;-78
2022/12/15 04:12:03;;;;;;;55.47;24.13;;;;;;;;;;5054860;28;20433;-78
2022/12/15 04:14:29;;;;;;;54.10;23.63;;;;;;;;;;5045458;28;20036;-79
2022/12/15 04:16:55;;;;;;;58.45;23.33;;;;;;;;;;5041887;28;20485;-78
2022/12/15 04:22:06;;;;;;;55.45;23.65;;;;;;;;;;5041874;28;20072;-78
2022/12/15 05:33:09;;;;;;;58.42;26.20;;;;;;;;;;5040732;28;20036;-78
2022/12/15 05:35:35;;;;;;;61.67;25.63;;;;;;;;;;5036896;28;20454;-77
2022/12/15 05:38:01;;;;;;;54.63;25.52;;;;;;;;;;5039008;28;20021;-78
2022/12/15 05:40:27;;;;;;;52.03;23.92;;;;;;;;;;5039665;28;20036;-77
2022/12/15 05:42:56;;;;;;;57.22;25.15;;;;;;;;;;5036911;28;20076;-77
2022/12/15 05:45:22;;;;;;;56.15;25.83;;;;;;;;;;5040262;28;20029;-78
2022/12/15 05:47:52;;;;;;;54.17;24.52;;;;;;;;;;5046449;28;20337;-78
2022/12/15 05:50:18;;;;;;;56.85;24.83;;;;;;;;;;5041704;28;20505;-78
2022/12/15 05:52:44;;;;;;;63.47;24.85;;;;;;;;;;5038592;28;20030;-77
2022/12/15 05:55:10;;;;;;;51.72;24.85;;;;;;;;;;5037525;28;20022;-77
2022/12/15 05:57:36;;;;;;;49.38;23.40;;;;;;;;;;5040920;28;20039;-77
2022/12/15 06:00:02;;;;;;;57.92;24.50;;;;;;;;;;5051367;28;20010;-77
2022/12/15 06:02:28;;;;;;;54.80;24.88;;;;;;;;;;5045670;28;20025;-77
2022/12/15 06:04:54;;;;;;;61.17;24.33;;;;;;;;;;5037855;28;20030;-78
2022/12/15 06:07:20;;;;;;;53.50;24.35;;;;;;;;;;5039587;28;20036;-78
2022/12/15 06:09:46;;;;;;;52.60;23.58;;;;;;;;;;5045774;28;20052;-78
2022/12/15 06:12:12;;;;;;;54.50;24.35;;;;;;;;;;5048242;28;20067;-78
2022/12/15 06:14:38;;;;;;;58.15;24.88;;;;;;;;;;5040017;28;20112;-78
2022/12/15 06:17:04;;;;;;;52.75;24.63;;;;;;;;;;5038911;28;20022;-78
2022/12/15 06:19:30;;;;;;;56.78;24.13;;;;;;;;;;5039976;28;20044;-78
2022/12/15 06:21:56;;;;;;;61.72;26.00;;;;;;;;;;5063345;23;20086;-76
2022/12/15 06:24:23;;;;;;;53.67;23.98;;;;;;;;;;5033354;28;20113;-76
2022/12/15 06:26:49;;;;;;;53.40;23.27;;;;;;;;;;5044284;28;20033;-76
2022/12/15 06:29:15;;;;;;;52.55;24.35;;;;;;;;;;5037613;28;20025;-76
2022/12/15 06:31:42;;;;;;;56.45;25.17;;;;;;;;;;5043533;28;20044;-76
2022/12/15 06:34:10;;;;;;;55.47;25.88;;;;;;;;;;5026801;28;20033;-74
2022/12/15 06:36:36;;;;;;;59.40;24.65;;;;;;;;;;5013353;28;20053;-76
2022/12/15 06:39:03;;;;;;;57.97;25.80;;;;;;;;;;5016786;28;20598;-77
2022/12/15 06:41:29;;;;;;;66.20;26.38;;;;;;;;;;5013453;28;20026;-77
2022/12/15 06:43:55;;;;;;;55.75;24.95;;;;;;;;;;5014992;28;20454;-77
2022/12/15 06:46:22;;;;;;;51.67;24.65;;;;;;;;;;5017415;28;20026;-76
2022/12/15 06:48:48;;;;;;;59.97;23.30;;;;;;;;;;5021432;28;20078;-80
2022/12/15 06:51:15;;;;;;;52.45;25.27;;;;;;;;;;5025425;28;20026;-76
2022/12/15 06:53:44;;;;;;;56.13;25.27;;;;;;;;;;5028128;28;20029;-75
2022/12/15 06:56:15;;;;;;;59.13;25.65;;;;;;;;;;5037841;28;20002;-75
2022/12/15 06:58:41;;;;;;;52.15;23.63;;;;;;;;;;5029607;28;20048;-76
2022/12/15 07:01:08;;;;;;;49.75;23.40;;;;;;;;;;5023107;28;20120;-76
2022/12/15 07:03:35;;;;;;;58.15;25.38;;;;;;;;;;5023811;28;20034;-74
2022/12/15 07:06:02;;;;;;;57.65;26.48;;;;;;;;;;5034099;28;20025;-75
2022/12/15 07:08:28;;;;;;;54.55;24.45;;;;;;;;;;5039111;28;20307;-76
2022/12/15 07:10:54;;;;;;;56.25;24.58;;;;;;;;;;5035711;28;20037;-76
2022/12/15 07:13:20;;;;;;;58.38;25.05;;;;;;;;;;5032811;28;20033;-76
2022/12/15 07:15:48;;;;;;;56.42;25.67;;;;;;;;;;5032939;28;20033;-75
2022/12/15 07:18:15;;;;;;;66.28;25.75;;;;;;;;;;5037304;28;20502;-78
2022/12/15 07:20:41;;;;;;;62.78;24.27;;;;;;;;;;5017788;28;20092;-77
2022/12/15 07:23:08;;;;;;;57.88;25.00;;;;;;;;;;5021645;28;20030;-77
2022/12/15 07:25:37;;;;;;;53.10;24.73;;;;;;;;;;5020912;28;20022;-78
2022/12/15 07:28:03;;;;;;;57.05;24.95;;;;;;;;;;5022874;28;20037;-79
2022/12/15 07:30:29;;;;;;;73.35;30.80;;;;;;;;;;5025282;28;20049;-79
2022/12/15 07:32:55;;;;;;;80.65;31.75;;;;;;;;;;5023772;28;20038;-78
2022/12/15 07:35:21;;;;;;;53.35;25.45;;;;;;;;;;5021198;28;20050;-78
2022/12/15 07:37:47;;;;;;;55.65;24.55;;;;;;;;;;5019987;28;20022;-77
2022/12/15 07:40:13;;;;;;;49.22;23.83;;;;;;;;;;5022311;28;20030;-76
2022/12/15 07:42:39;;;;;;;52.17;23.38;;;;;;;;;;5024845;28;20034;-76
2022/12/15 07:45:06;;;;;;;58.10;24.70;;;;;;;;;;5020368;28;20034;-77
2022/12/15 07:47:32;;;;;;;54.08;23.27;;;;;;;;;;5021254;28;20032;-78
2022/12/15 07:49:58;;;;;;;56.15;24.52;;;;;;;;;;5028557;28;20029;-78
2022/12/15 07:52:24;;;;;;;52.47;24.05;;;;;;;;;;5022893;28;20115;-78
2022/12/15 07:54:50;;;;;;;53.65;24.17;;;;;;;;;;5020107;28;20534;-84
2022/12/15 07:57:17;;;;;;;58.08;25.23;;;;;;;;;;5019201;28;20049;-79
2022/12/15 07:59:43;;;;;;;59.75;25.50;;;;;;;;;;5019920;28;20053;-79
2022/12/15 08:02:10;;;;;;;60.13;25.50;;;;;;;;;;5016720;28;20312;-74
2022/12/15 08:04:36;;;;;;;59.35;25.67;;;;;;;;;;5011717;28;20026;-74
2022/12/15 08:07:03;;;;;;;69.10;31.20;;;;;;;;;;5013519;28;20075;-78
2022/12/15 08:09:30;;;;;;;59.03;24.77;;;;;;;;;;5020183;28;20080;-80
2022/12/15 08:11:56;;;;;;;56.70;23.35;;;;;;;;;;5020758;28;20029;-80
2022/12/15 08:14:22;;;;;;;59.58;23.90;;;;;;;;;;5021354;28;20081;-80
2022/12/15 08:16:48;;;;;;;64.45;25.98;;;;;;;;;;5021968;28;20474;-77
2022/12/15 08:19:15;;;;;;;64.45;25.15;;;;;;;;;;5019145;28;20390;-79
2022/12/15 08:21:42;;;;;;;78.03;28.60;;;;;;;;;;5019132;28;20022;-77
2022/12/15 08:24:08;;;;;;;60.08;25.70;;;;;;;;;;5016159;28;20491;-77
2022/12/15 08:26:34;;;;;;;52.22;23.20;;;;;;;;;;5014224;28;20040;-76
2022/12/15 08:29:02;;;;;;;47.97;21.77;;;;;;;;;;5020640;28;20076;-79
2022/12/15 08:31:31;;;;;;;48.25;23.10;;;;;;;;;;5018173;28;20444;-79
2022/12/15 08:33:57;;;;;;;52.20;24.02;;;;;;;;;;5020451;28;20483;-79
2022/12/15 08:36:23;;;;;;;52.53;22.10;;;;;;;;;;5019309;28;20030;-78
2022/12/15 08:38:49;;;;;;;44.58;21.52;;;;;;;;;;5019506;28;20082;-78
2022/12/15 08:41:26;;;;;;;53.45;22.40;;;;;;;;;;5019679;28;20052;-77
2022/12/15 08:43:52;;;;;;;53.38;23.73;;;;;;;;;;5017584;28;20367;-78
2022/12/15 08:46:20;;;;;;;49.55;22.65;;;;;;;;;;5022100;28;20038;-79
2022/12/15 08:48:46;;;;;;;50.28;21.90;;;;;;;;;;5025635;28;20026;-79
2022/12/15 08:51:12;;;;;;;49.15;22.83;;;;;;;;;;5020630;28;20037;-77
2022/12/15 08:53:38;;;;;;;47.15;21.70;;;;;;;;;;5021688;28;20087;-76
2022/12/15 08:56:05;;;;;;;48.33;21.27;;;;;;;;;;5015386;28;20026;-76
2022/12/15 08:58:32;;;;;;;54.97;22.40;;;;;;;;;;5018089;28;20480;-74
2022/12/15 09:01:01;;;;;;;60.88;23.42;;;;;;;;;;5035669;28;20034;-74
2022/12/15 09:03:28;;;;;;;54.78;22.77;;;;;;;;;;5038591;28;20037;-74
2022/12/15 09:05:56;;;;;;;47.28;21.20;;;;;;;;;;5027011;28;20486;-76
2022/12/15 09:08:22;;;;;;;45.78;20.88;;;;;;;;;;5016471;28;20040;-74
2022/12/15 09:10:48;;;;;;;48.72;21.55;;;;;;;;;;5015706;28;20018;-77
2022/12/15 09:13:14;;;;;;;48.63;22.73;;;;;;;;;;5017652;28;20044;-76
2022/12/15 09:15:42;;;;;;;49.50;22.20;;;;;;;;;;5021330;28;20080;-75
2022/12/15 09:18:08;;;;;;;41.63;20.92;;;;;;;;;;5039989;28;20083;-74
2022/12/15 09:20:34;;;;;;;68.32;27.38;;;;;;;;;;5045563;28;20026;-75
2022/12/15 09:23:00;;;;;;;51.80;23.98;;;;;;;;;;5040169;28;20040;-75
2022/12/15 09:25:26;;;;;;;47.50;21.10;;;;;;;;;;5045914;28;20041;-75
2022/12/15 09:27:52;;;;;;;53.50;22.40;;;;;;;;;;5050791;28;20029;-75
2022/12/15 09:30:18;;;;;;;48.25;21.83;;;;;;;;;;5057116;28;20037;-76
2022/12/15 09:32:44;;;;;;;49.58;20.70;;;;;;;;;;5053666;28;20040;-73
2022/12/15 09:35:10;;;;;;;45.22;20.27;;;;;;;;;;5045609;28;20025;-75
2022/12/15 09:37:36;;;;;;;40.35;19.35;;;;;;;;;;5036656;28;20033;-76
2022/12/15 09:40:03;;;;;;;46.67;19.75;;;;;;;;;;5037287;28;20482;-75
2022/12/15 09:42:29;;;;;;;47.88;19.80;;;;;;;;;;5041088;28;20083;-77
2022/12/15 09:45:21;;;;;;;37.30;18.58;;;;;;;;;;5038242;28;20083;-78
2022/12/15 09:47:58;;;;;;;38.60;18.15;;;;;;;;;;5037100;28;20065;-75
2022/12/15 09:50:27;;;;;;;45.00;18.10;;;;;;;;;;5039578;28;20034;-78
2022/12/15 09:52:55;;;;;;;43.58;17.60;;;;;;;;;;5042079;28;20026;-77
2022/12/15 09:55:25;;;;;;;42.80;18.90;;;;;;;;;;5037499;28;20018;-77
2022/12/15 09:57:56;;;;;;;41.83;17.10;;;;;;;;;;5043571;28;20028;-77
2022/12/15 10:00:24;;;;;;;58.00;21.10;;;;;;;;;;5041257;28;20467;-78
2022/12/15 10:03:08;;;;;;;40.53;19.10;;;;;;;;;;5040895;28;20160;-77
2022/12/15 10:05:41;;;;;;;47.97;20.02;;;;;;;;;;5043239;28;20112;-78
2022/12/15 10:08:08;;;;;;;49.78;22.90;;;;;;;;;;5039938;28;20056;-77
2022/12/15 10:10:42;;;;;;;45.63;19.70;;;;;;;;;;5040903;28;20036;-77
2022/12/15 10:13:22;;;;;;;49.22;19.80;;;;;;;;;;5039978;28;20481;-77
2022/12/15 10:15:50;;;;;;;43.35;20.80;;;;;;;;;;5039045;28;20036;-78
2022/12/15 10:18:21;;;;;;;50.80;21.67;;;;;;;;;;5043423;28;20052;-78
2022/12/15 10:20:48;;;;;;;45.25;21.58;;;;;;;;;;5052121;28;20024;-77
2022/12/15 10:23:16;;;;;;;44.00;20.23;;;;;;;;;;5055150;28;20096;-78
2022/12/15 10:25:49;;;;;;;47.25;21.88;;;;;;;;;;5055378;28;20021;-77
2022/12/15 10:28:16;;;;;;;46.35;21.45;;;;;;;;;;5055751;28;20048;-77
2022/12/15 10:30:58;;;;;;;51.20;22.73;;;;;;;;;;5052749;28;20040;-77
2022/12/15 10:33:26;;;;;;;50.50;21.38;;;;;;;;;;5046860;28;20075;-77
2022/12/15 10:35:53;;;;;;;52.22;22.38;;;;;;;;;;5045041;28;20017;-78
2022/12/15 10:38:19;;;;;;;44.85;20.85;;;;;;;;;;5015372;28;20073;-78
2022/12/15 10:40:54;;;;;;;50.08;21.58;;;;;;;;;;5017425;28;20026;-76
2022/12/15 10:43:24;;;;;;;47.88;21.33;;;;;;;;;;5025263;28;20026;-78
2022/12/15 10:45:59;;;;;;;68.32;25.13;;;;;;;;;;5025826;28;20037;-77
2022/12/15 10:48:25;;;;;;;50.80;20.30;;;;;;;;;;5020352;28;20030;-77
2022/12/15 10:50:51;;;;;;;48.13;20.15;;;;;;;;;;5016812;28;20034;-76
2022/12/15 10:53:38;;;;;;;53.08;17.83;;;;;;;;;;5021240;28;20029;-76
2022/12/15 10:56:06;;;;;;;42.60;19.92;;;;;;;;;;5036183;28;20021;-75
2022/12/15 10:58:32;;;;;;;40.28;17.80;;;;;;;;;;5036854;28;20049;-80
2022/12/15 11:01:05;;;;;;;41.22;19.27;;;;;;;;;;5036999;28;20034;-78
2022/12/15 11:03:35;;;;;;;43.42;18.77;;;;;;;;;;5037160;28;20022;-78
2022/12/15 11:06:01;;;;;;;43.97;19.23;;;;;;;;;;5037161;28;20038;-76
2022/12/15 11:08:28;;;;;;;48.10;19.42;;;;;;;;;;5035276;28;20031;-78
2022/12/15 11:14:02;;;;;;;43.13;19.27;;;;;;;;;;5036690;28;20040;-77
2022/12/15 11:16:30;;;;;;;39.60;18.50;;;;;;;;;;5020544;28;20056;-78
2022/12/15 11:19:07;;;;;;;42.17;19.58;;;;;;;;;;5018445;28;20109;-76
2022/12/15 11:21:36;;;;;;;31.25;16.25;;;;;;;;;;5020053;28;20049;-76
2022/12/15 11:24:08;;;;;;;39.25;17.30;;;;;;;;;;5018891;28;20030;-78
2022/12/15 11:26:35;;;;;;;34.67;17.60;;;;;;;;;;5021890;28;20030;-76
2022/12/15 11:29:06;;;;;;;40.35;17.67;;;;;;;;;;5019315;28;20116;-75
2022/12/15 11:31:41;;;;;;;36.28;16.90;;;;;;;;;;5015473;28;20110;-76
2022/12/15 11:34:12;;;;;;;45.28;17.90;;;;;;;;;;5015737;28;20041;-75
2022/12/15 11:36:38;;;;;;;37.05;17.48;;;;;;;;;;5021827;28;20030;-76
2022/12/15 11:39:12;;;;;;;45.45;17.77;;;;;;;;;;5016334;28;20045;-76
2022/12/15 11:42:02;;;;;;;39.25;16.65;;;;;;;;;;5027904;28;20025;-76
2022/12/15 11:44:34;;;;;;;38.28;17.10;;;;;;;;;;5033975;28;20033;-76
2022/12/15 11:47:13;;;;;;;35.03;18.10;;;;;;;;;;5027538;28;20037;-75
2022/12/15 11:49:50;;;;;;;40.10;16.88;;;;;;;;;;5024838;28;20040;-77
2022/12/15 11:52:16;;;;;;;34.28;15.35;;;;;;;;;;5021585;28;20033;-75
2022/12/15 11:54:59;;;;;;;30.02;15.43;;;;;;;;;;5020006;28;20030;-77
2022/12/15 11:57:44;;;;;;;31.83;16.02;;;;;;;;;;5014720;28;20034;-77
2022/12/15 12:00:12;;;;;;;34.83;15.77;;;;;;;;;;5014418;28;20026;-76
2022/12/15 12:03:01;;;;;;;32.78;15.57;;;;;;;;;;5015120;28;20034;-77
2022/12/15 12:05:30;;;;;;;33.30;15.48;;;;;;;;;;5016178;28;20451;-77
2022/12/15 12:07:56;;;;;;;32.60;15.70;;;;;;;;;;5015443;28;20125;-76
2022/12/15 12:10:39;;;;;;;31.80;15.20;;;;;;;;;;5018206;28;20463;-77
2022/12/15 12:13:11;;;;;;;32.85;14.63;;;;;;;;;;5017945;28;20034;-77
2022/12/15 12:15:40;;;;;;;29.45;14.48;;;;;;;;;;5016764;28;20029;-77
2022/12/15 12:18:35;;;;;;;29.88;14.75;;;;;;;;;;5019529;28;20104;-77
2022/12/15 12:21:04;;;;;;;33.15;14.13;;;;;;;;;;5014758;28;20034;-78
2022/12/15 12:23:42;;;;;;;33.33;14.77;;;;;;;;;;5019180;28;20045;-78
2022/12/15 12:26:11;;;;;;;38.47;18.58;;;;;;;;;;5018902;28;20030;-77
2022/12/15 12:28:44;;;;;;;34.10;15.63;;;;;;;;;;5021053;28;20104;-78
2022/12/15 12:31:19;;;;;;;33.28;15.23;;;;;;;;;;5024446;28;20121;-79
2022/12/15 12:33:46;;;;;;;33.53;15.30;;;;;;;;;;5018504;28;20068;-78
2022/12/15 12:36:14;;;;;;;40.90;16.88;;;;;;;;;;5023286;28;20145;-78
2022/12/15 12:38:45;;;;;;;38.80;17.67;;;;;;;;;;5030095;28;20076;-77
2022/12/15 12:41:11;;;;;;;38.63;16.52;;;;;;;;;;5025413;28;20275;-78
2022/12/15 12:43:42;;;;;;;36.28;15.60;;;;;;;;;;5033751;28;20025;-78
2022/12/15 12:46:17;;;;;;;34.17;14.90;;;;;;;;;;5026922;28;20088;-78
2022/12/15 12:48:54;;;;;;;34.08;16.70;;;;;;;;;;5035321;28;20065;-77
2022/12/15 12:51:23;;;;;;;37.15;14.90;;;;;;;;;;5034692;28;20086;-78
2022/12/15 12:53:49;;;;;;;30.23;14.63;;;;;;;;;;5030140;28;20034;-76
2022/12/15 12:56:31;;;;;;;29.58;14.27;;;;;;;;;;5029952;28;20085;-77
2022/12/15 12:58:57;;;;;;;38.85;17.75;;;;;;;;;;5027435;28;20025;-78
2022/12/15 13:01:26;;;;;;;36.45;16.45;;;;;;;;;;5020296;28;20387;-78
2022/12/15 13:04:07;;;;;;;32.38;15.18;;;;;;;;;;5021487;28;20399;-78
2022/12/15 13:06:33;;;;;;;33.45;14.82;;;;;;;;;;5030170;28;20049;-78
2022/12/15 13:09:19;;;;;;;39.35;15.65;;;;;;;;;;5038759;28;20041;-79
2022/12/15 13:11:49;;;;;;;41.10;18.17;;;;;;;;;;5038212;28;20014;-78
2022/12/15 13:14:18;;;;;;;33.53;15.70;;;;;;;;;;5033021;28;20033;-77
2022/12/15 13:16:45;;;;;;;30.42;14.90;;;;;;;;;;5033090;28;20025;-77
2022/12/15 13:19:12;;;;;;;35.08;15.35;;;;;;;;;;5022955;28;20082;-77
2022/12/15 13:21:41;;;;;;;34.78;14.80;;;;;;;;;;5019089;28;20029;-78
2022/12/15 13:24:26;;;;;;;32.63;14.32;;;;;;;;;;5018225;28;20175;-78
2022/12/15 13:26:52;;;;;;;48.70;15.90;;;;;;;;;;5017760;28;20104;-79
2022/12/15 13:29:19;;;;;;;32.85;14.30;;;;;;;;;;5016900;28;20038;-78
2022/12/15 13:31:47;;;;;;;29.48;14.18;;;;;;;;;;5019455;28;20034;-78
2022/12/15 13:34:20;;;;;;;33.70;13.82;;;;;;;;;;5024397;28;20117;-78
2022/12/15 13:36:52;;;;;;;38.15;14.13;;;;;;;;;;5023745;28;20391;-77
2022/12/15 13:39:18;;;;;;;40.15;18.70;;;;;;;;;;5022903;28;20033;-77
2022/12/15 13:41:44;;;;;;;35.95;14.18;;;;;;;;;;5015699;28;20021;-77
2022/12/15 13:44:26;;;;;;;33.65;14.82;;;;;;;;;;5017718;28;20478;-78
2022/12/15 13:46:53;;;;;;;31.63;14.07;;;;;;;;;;5020612;28;20030;-77
2022/12/15 13:49:26;;;;;;;35.40;15.77;;;;;;;;;;5015434;28;20029;-78
2022/12/15 13:51:58;;;;;;;33.00;13.77;;;;;;;;;;5017554;28;20537;-78
2022/12/15 13:54:27;;;;;;;26.00;13.85;;;;;;;;;;5019016;28;20459;-78
2022/12/15 13:56:59;;;;;;;38.72;15.25;;;;;;;;;;5019202;28;20078;-77
2022/12/15 13:59:44;;;;;;;32.38;14.57;;;;;;;;;;5022681;28;20022;-78
2022/12/15 14:02:10;;;;;;;;;;;;;;;;;;5025658;28;20447;-78
2022/12/15 14:04:36;;;;;;;32.10;14.68;;;;;;;;;;5027764;28;19912;-78
2022/12/15 14:07:02;;;;;;;32.75;15.40;;;;;;;;;;5021520;28;20029;-78
2022/12/15 14:09:40;;;;;;;31.48;13.88;;;;;;;;;;5017381;28;20034;-77
2022/12/15 14:12:08;;;;;;;35.17;14.02;;;;;;;;;;5015752;28;20041;-77
2022/12/15 14:14:37;;;;;;;35.97;14.82;;;;;;;;;;5016789;28;20053;-77
2022/12/15 14:17:06;;;;;;;29.15;13.90;;;;;;;;;;5017552;28;20136;-77
2022/12/15 14:19:36;;;;;;;31.70;13.73;;;;;;;;;;5018245;28;20022;-77
2022/12/15 14:22:02;;;;;;;29.20;13.40;;;;;;;;;;5019422;28;20053;-78
2022/12/15 14:24:30;;;;;;;33.35;14.02;;;;;;;;;;5018804;28;20026;-80
2022/12/15 14:26:56;;;;;;;37.13;14.68;;;;;;;;;;5028792;28;20022;-78
2022/12/15 14:29:22;;;;;;;34.05;14.32;;;;;;;;;;5027217;28;20085;-77
2022/12/15 14:31:49;;;;;;;28.08;14.15;;;;;;;;;;5031564;28;20048;-78
2022/12/15 14:34:28;;;;;;;30.13;14.43;;;;;;;;;;5028654;28;20045;-77
2022/12/15 14:36:58;;;;;;;37.30;14.57;;;;;;;;;;5020639;28;20033;-78
2022/12/15 14:39:37;;;;;;;31.35;15.88;;;;;;;;;;5015982;28;20502;-77
2022/12/15 14:42:03;;;;;;;38.13;16.83;;;;;;;;;;5014625;28;20022;-77
2022/12/15 14:44:30;;;;;;;44.30;19.58;;;;;;;;;;5017739;28;20030;-78
2022/12/15 14:46:56;;;;;;;32.03;13.80;;;;;;;;;;5016802;28;20030;-79
2022/12/15 14:49:24;;;;;;;35.63;14.68;;;;;;;;;;5018432;28;20033;-78
2022/12/15 14:51:52;;;;;;;32.05;14.35;;;;;;;;;;5015514;28;20029;-77
2022/12/15 14:54:32;;;;;;;33.47;14.18;;;;;;;;;;5015276;28;20048;-77
2022/12/15 14:57:20;;;;;;;47.45;15.82;;;;;;;;;;5013869;28;20026;-77
2022/12/15 14:59:47;;;;;;;31.33;14.32;;;;;;;;;;5015855;28;20554;-78
2022/12/15 15:02:18;;;;;;;31.25;13.75;;;;;;;;;;5016815;28;20033;-78
2022/12/15 15:04:55;;;;;;;31.33;13.20;;;;;;;;;;5016246;28;20033;-79
2022/12/15 15:07:21;;;;;;;34.00;14.57;;;;;;;;;;5018334;28;20449;-78
2022/12/15 15:09:48;;;;;;;32.65;13.77;;;;;;;;;;5018817;28;20026;-80
2022/12/15 15:12:15;;;;;;;29.00;13.20;;;;;;;;;;5019942;28;20057;-79
2022/12/15 15:14:43;;;;;;;40.70;13.07;;;;;;;;;;5030311;28;20034;-78
2022/12/15 15:17:12;;;;;;;32.08;13.05;;;;;;;;;;5017055;28;20483;-79
2022/12/15 15:19:39;;;;;;;35.08;15.27;;;;;;;;;;5017808;28;20034;-78
2022/12/15 15:22:05;;;;;;;32.17;13.95;;;;;;;;;;5016416;28;20033;-78
2022/12/15 15:24:34;;;;;;;32.38;12.85;;;;;;;;;;5015547;28;20032;-77
2022/12/15 15:27:19;;;;;;;33.50;14.07;;;;;;;;;;5017098;28;20219;-78
2022/12/15 15:29:45;;;;;;;;;;;;;;;;;;5021954;28;20030;-80
2022/12/15 15:32:16;;;;;;;29.05;13.55;;;;;;;;;;5016383;28;19956;-78
2022/12/15 15:34:43;;;;;;;32.80;12.77;;;;;;;;;;5017818;28;20128;-78
2022/12/15 15:37:17;;;;;;;37.92;14.35;;;;;;;;;;5016959;28;20022;-78
2022/12/15 15:39:43;;;;;;;31.58;13.65;;;;;;;;;;5021404;28;20030;-79
2022/12/15 15:42:12;;;;;;;31.95;14.10;;;;;;;;;;5019019;28;20030;-78
2022/12/15 15:44:39;;;;;;;35.60;15.45;;;;;;;;;;5019936;28;20092;-78
2022/12/15 15:47:06;;;;;;;37.17;13.73;;;;;;;;;;5015936;28;20045;-82
2022/12/15 15:49:32;;;;;;;30.00;13.77;;;;;;;;;;5020996;28;20116;-78
2022/12/15 15:51:58;;;;;;;31.77;14.60;;;;;;;;;;5018727;28;20060;-77
2022/12/15 15:54:25;;;;;;;33.72;14.82;;;;;;;;;;5018887;28;20475;-78
2022/12/15 15:56:51;;;;;;;36.00;16.17;;;;;;;;;;5021121;28;20088;-78
2022/12/15 15:59:23;;;;;;;30.70;15.45;;;;;;;;;;5021525;28;20026;-77
2022/12/15 16:01:52;;;;;;;42.17;17.33;;;;;;;;;;5021226;28;20022;-78
2022/12/15 16:04:18;;;;;;;35.95;15.77;;;;;;;;;;5020365;28;20083;-78
2022/12/15 16:06:44;;;;;;;40.00;15.25;;;;;;;;;;5021374;28;20526;-78
2022/12/15 16:09:13;;;;;;;32.35;13.93;;;;;;;;;;5022203;28;20060;-78
2022/12/15 16:11:39;;;;;;;40.08;15.13;;;;;;;;;;5028685;28;20029;-78
2022/12/15 16:14:10;;;;;;;34.17;15.38;;;;;;;;;;5039240;28;20090;-79
2022/12/15 16:16:36;;;;;;;32.28;14.73;;;;;;;;;;5036756;28;20041;-79
2022/12/15 16:19:03;;;;;;;40.10;16.60;;;;;;;;;;5039408;28;20022;-80
2022/12/15 16:21:29;;;;;;;33.47;16.30;;;;;;;;;;5034248;28;20036;-79
2022/12/15 16:23:56;;;;;;;33.25;15.15;;;;;;;;;;5020619;28;20076;-79
2022/12/15 16:26:25;;;;;;;34.47;15.52;;;;;;;;;;5021264;28;20109;-80
2022/12/15 16:28:51;;;;;;;39.00;16.05;;;;;;;;;;5021710;28;20425;-80
2022/12/15 16:31:27;;;;;;;33.17;14.73;;;;;;;;;;5019708;28;20026;-78
2022/12/15 16:33:54;;;;;;;37.97;16.45;;;;;;;;;;5021928;28;20121;-81
2022/12/15 16:36:20;;;;;;;38.30;17.05;;;;;;;;;;5020974;28;20045;-78
2022/12/15 16:38:46;;;;;;;33.08;15.45;;;;;;;;;;5019167;28;20026;-78
2022/12/15 16:41:14;;;;;;;38.22;16.38;;;;;;;;;;5019172;28;20370;-78
2022/12/15 16:43:41;;;;;;;33.65;16.27;;;;;;;;;;5020020;28;20049;-78
2022/12/15 16:46:07;;;;;;;30.27;15.82;;;;;;;;;;5019586;28;20150;-79
2022/12/15 16:48:32;;;;;;;32.53;16.48;;;;;;;;;;5018846;28;20387;-79
2022/12/15 16:50:58;;;;;;;43.63;18.42;;;;;;;;;;5021594;28;20033;-79
2022/12/15 16:53:27;;;;;;;38.00;18.10;;;;;;;;;;5020729;28;20025;-78
2022/12/15 16:55:56;;;;;;;46.33;17.20;;;;;;;;;;5019033;28;20022;-81
2022/12/15 16:58:24;;;;;;;36.65;16.45;;;;;;;;;;5019279;28;20471;-79